sensor_id;sensor_type;location;lat;lon;timestamp;temperature;humidity
18073;DHT22;9161;47.348;9.648;2023-11-18T00:03:16;4.30;99.90
18073;DHT22;9161;47.348;9.648;2023-11-18T00:08:19;4.30;99.90
18073;DHT22;9161;47.348;9.648;2023-11-18T00:13:21;4.40;99.90
18073;DHT22;9161;47.348;9.648;2023-11-18T00:18:25;4.50;99.90
18073;DHT22;9161;47.348;9.648;2023-11-18T00:23:28;4.60;99.90
18073;DHT22;9161;47.348;9.648;2023-11-18T00:28:31;4.60;99.90
18073;DHT22;9161;47.348;9.648;2023-11-18T00:33:34;4.60;99.90
18073;DHT22;9161;47.348;9.648;2023-11-18T00:38:36;4.60;99.90
18073;DHT22;9161;47.348;9.648;2023-11-18T00:43:38;4.70;99.90
18073;DHT22;9161;47.348;9.648;2023-11-18T00:48:42;4.60;99.90
18073;DHT22;9161;47.348;9.648;2023-11-18T00:53:44;4.60;99.90
18073;DHT22;9161;47.348;9.648;2023-11-18T00:58:46;4.50;99.90
18073;DHT22;9161;47.348;9.648;2023-11-18T01:03:49;4.50;99.90
18073;DHT22;9161;47.348;9.648;2023-11-18T01:08:51;4.40;99.90
18073;DHT22;9161;47.348;9.648;2023-11-18T01:13:54;4.40;99.90
18073;DHT22;9161;47.348;9.648;2023-11-18T01:18:58;4.40;99.90
18073;DHT22;9161;47.348;9.648;2023-11-18T01:24:00;4.40;99.90
18073;DHT22;9161;47.348;9.648;2023-11-18T01:29:03;4.30;99.90
18073;DHT22;9161;47.348;9.648;2023-11-18T01:34:07;4.20;99.90
18073;DHT22;9161;47.348;9.648;2023-11-18T01:39:09;4.10;99.90
18073;DHT22;9161;47.348;9.648;2023-11-18T01:44:13;4.10;99.90
18073;DHT22;9161;47.348;9.648;2023-11-18T01:49:17;4.00;99.90
18073;DHT22;9161;47.348;9.648;2023-11-18T01:54:21;4.00;99.90
18073;DHT22;9161;47.348;9.648;2023-11-18T01:59:24;3.90;99.90
18073;DHT22;9161;47.348;9.648;2023-11-18T02:04:27;3.90;99.90
18073;DHT22;9161;47.348;9.648;2023-11-18T02:09:31;4.00;99.90
18073;DHT22;9161;47.348;9.648;2023-11-18T02:14:33;4.00;99.90
18073;DHT22;9161;47.348;9.648;2023-11-18T02:19:39;4.00;99.90
18073;DHT22;9161;47.348;9.648;2023-11-18T02:24:42;4.00;99.90
18073;DHT22;9161;47.348;9.648;2023-11-18T02:29:46;4.00;99.90
18073;DHT22;9161;47.348;9.648;2023-11-18T02:40:14;3.80;99.90
18073;DHT22;9161;47.348;9.648;2023-11-18T02:45:19;3.80;99.90
18073;DHT22;9161;47.348;9.648;2023-11-18T02:50:22;3.80;99.90
18073;DHT22;9161;47.348;9.648;2023-11-18T02:55:24;3.70;99.90
18073;DHT22;9161;47.348;9.648;2023-11-18T03:00:27;3.70;99.90
18073;DHT22;9161;47.348;9.648;2023-11-18T03:05:30;3.70;99.90
18073;DHT22;9161;47.348;9.648;2023-11-18T03:10:32;3.70;99.90
18073;DHT22;9161;47.348;9.648;2023-11-18T03:15:37;3.70;99.90
18073;DHT22;9161;47.348;9.648;2023-11-18T03:20:39;3.60;99.90
18073;DHT22;9161;47.348;9.648;2023-11-18T03:25:41;3.50;99.90
18073;DHT22;9161;47.348;9.648;2023-11-18T03:30:45;3.40;99.90
18073;DHT22;9161;47.348;9.648;2023-11-18T03:35:48;3.30;99.90
18073;DHT22;9161;47.348;9.648;2023-11-18T03:40:50;3.10;99.90
18073;DHT22;9161;47.348;9.648;2023-11-18T03:45:54;2.90;99.90
18073;DHT22;9161;47.348;9.648;2023-11-18T03:50:58;2.90;99.90
18073;DHT22;9161;47.348;9.648;2023-11-18T03:56:01;2.90;99.90
18073;DHT22;9161;47.348;9.648;2023-11-18T04:01:06;2.80;99.90
18073;DHT22;9161;47.348;9.648;2023-11-18T04:06:08;2.70;99.90
18073;DHT22;9161;47.348;9.648;2023-11-18T04:11:10;2.70;99.90
18073;DHT22;9161;47.348;9.648;2023-11-18T04:16:14;2.50;99.90
18073;DHT22;9161;47.348;9.648;2023-11-18T04:21:17;2.40;99.90
18073;DHT22;9161;47.348;9.648;2023-11-18T04:26:19;2.30;99.90
18073;DHT22;9161;47.348;9.648;2023-11-18T04:31:22;2.40;99.90
18073;DHT22;9161;47.348;9.648;2023-11-18T04:36:24;2.20;99.90
18073;DHT22;9161;47.348;9.648;2023-11-18T04:41:27;2.10;99.90
18073;DHT22;9161;47.348;9.648;2023-11-18T04:46:30;2.10;99.90
18073;DHT22;9161;47.348;9.648;2023-11-18T04:51:32;2.00;99.90
18073;DHT22;9161;47.348;9.648;2023-11-18T04:56:34;1.80;99.90
18073;DHT22;9161;47.348;9.648;2023-11-18T05:01:38;1.80;99.90
18073;DHT22;9161;47.348;9.648;2023-11-18T05:06:40;1.50;99.90
18073;DHT22;9161;47.348;9.648;2023-11-18T05:11:42;1.50;99.90
18073;DHT22;9161;47.348;9.648;2023-11-18T05:16:47;1.70;99.90
18073;DHT22;9161;47.348;9.648;2023-11-18T05:21:48;1.80;99.90
18073;DHT22;9161;47.348;9.648;2023-11-18T05:26:50;1.60;99.90
18073;DHT22;9161;47.348;9.648;2023-11-18T05:31:54;1.60;99.90
18073;DHT22;9161;47.348;9.648;2023-11-18T05:36:56;1.60;99.90
18073;DHT22;9161;47.348;9.648;2023-11-18T05:41:59;1.50;99.90
18073;DHT22;9161;47.348;9.648;2023-11-18T05:47:03;1.40;99.90
18073;DHT22;9161;47.348;9.648;2023-11-18T05:52:06;1.20;99.90
18073;DHT22;9161;47.348;9.648;2023-11-18T05:57:09;1.20;99.90
18073;DHT22;9161;47.348;9.648;2023-11-18T06:02:12;1.50;99.90
18073;DHT22;9161;47.348;9.648;2023-11-18T06:07:20;1.60;99.90
18073;DHT22;9161;47.348;9.648;2023-11-18T06:12:24;1.60;99.90
18073;DHT22;9161;47.348;9.648;2023-11-18T06:17:29;1.50;99.90
18073;DHT22;9161;47.348;9.648;2023-11-18T06:22:31;1.40;99.90
18073;DHT22;9161;47.348;9.648;2023-11-18T06:27:33;1.30;99.90
18073;DHT22;9161;47.348;9.648;2023-11-18T06:32:37;1.20;99.90
18073;DHT22;9161;47.348;9.648;2023-11-18T06:37:39;1.00;99.90
18073;DHT22;9161;47.348;9.648;2023-11-18T06:42:43;0.90;99.90
18073;DHT22;9161;47.348;9.648;2023-11-18T06:47:49;0.90;99.90
18073;DHT22;9161;47.348;9.648;2023-11-18T06:52:51;1.00;99.90
18073;DHT22;9161;47.348;9.648;2023-11-18T06:57:54;1.40;99.90
18073;DHT22;9161;47.348;9.648;2023-11-18T07:02:59;1.30;99.90
18073;DHT22;9161;47.348;9.648;2023-11-18T07:08:02;1.20;99.90
18073;DHT22;9161;47.348;9.648;2023-11-18T07:13:04;1.30;99.90
18073;DHT22;9161;47.348;9.648;2023-11-18T07:18:09;1.40;99.90
18073;DHT22;9161;47.348;9.648;2023-11-18T07:23:13;1.50;99.90
18073;DHT22;9161;47.348;9.648;2023-11-18T07:28:15;1.50;99.90
18073;DHT22;9161;47.348;9.648;2023-11-18T07:33:20;1.60;99.90
18073;DHT22;9161;47.348;9.648;2023-11-18T07:38:22;1.90;99.90
18073;DHT22;9161;47.348;9.648;2023-11-18T07:43:24;2.10;99.90
18073;DHT22;9161;47.348;9.648;2023-11-18T07:48:31;2.30;99.90
18073;DHT22;9161;47.348;9.648;2023-11-18T07:53:33;2.30;99.90
18073;DHT22;9161;47.348;9.648;2023-11-18T07:58:37;2.40;99.90
18073;DHT22;9161;47.348;9.648;2023-11-18T08:03:40;2.90;99.90
18073;DHT22;9161;47.348;9.648;2023-11-18T08:08:43;3.40;99.90
18073;DHT22;9161;47.348;9.648;2023-11-18T08:13:45;3.70;99.90
18073;DHT22;9161;47.348;9.648;2023-11-18T08:18:49;4.10;99.90
18073;DHT22;9161;47.348;9.648;2023-11-18T08:23:51;4.40;99.90
18073;DHT22;9161;47.348;9.648;2023-11-18T08:28:54;4.80;99.90
18073;DHT22;9161;47.348;9.648;2023-11-18T08:33:57;4.90;99.90
18073;DHT22;9161;47.348;9.648;2023-11-18T08:39:00;5.10;99.90
18073;DHT22;9161;47.348;9.648;2023-11-18T08:44:03;5.20;99.90
18073;DHT22;9161;47.348;9.648;2023-11-18T08:49:22;5.20;99.90
18073;DHT22;9161;47.348;9.648;2023-11-18T08:54:25;5.30;99.90
18073;DHT22;9161;47.348;9.648;2023-11-18T08:59:37;5.60;99.90
18073;DHT22;9161;47.348;9.648;2023-11-18T09:04:41;6.00;99.90
18073;DHT22;9161;47.348;9.648;2023-11-18T09:09:44;6.30;99.90
18073;DHT22;9161;47.348;9.648;2023-11-18T09:14:46;6.50;99.90
18073;DHT22;9161;47.348;9.648;2023-11-18T09:19:54;6.20;99.90
18073;DHT22;9161;47.348;9.648;2023-11-18T09:24:57;6.10;99.90
18073;DHT22;9161;47.348;9.648;2023-11-18T09:30:00;5.90;99.90
18073;DHT22;9161;47.348;9.648;2023-11-18T09:35:05;5.90;99.90
18073;DHT22;9161;47.348;9.648;2023-11-18T09:40:13;6.20;99.90
18073;DHT22;9161;47.348;9.648;2023-11-18T09:45:16;6.40;99.90
18073;DHT22;9161;47.348;9.648;2023-11-18T09:50:25;6.60;99.90
18073;DHT22;9161;47.348;9.648;2023-11-18T09:55:38;7.10;99.90
18073;DHT22;9161;47.348;9.648;2023-11-18T10:00:42;8.20;99.90
18073;DHT22;9161;47.348;9.648;2023-11-18T10:05:46;7.50;99.90
18073;DHT22;9161;47.348;9.648;2023-11-18T10:10:50;7.30;99.90
18073;DHT22;9161;47.348;9.648;2023-11-18T10:15:52;7.40;99.90
18073;DHT22;9161;47.348;9.648;2023-11-18T10:20:56;7.20;99.90
18073;DHT22;9161;47.348;9.648;2023-11-18T10:26:00;7.20;99.90
18073;DHT22;9161;47.348;9.648;2023-11-18T10:31:05;7.60;99.90
18073;DHT22;9161;47.348;9.648;2023-11-18T10:36:19;7.50;99.90
18073;DHT22;9161;47.348;9.648;2023-11-18T10:41:23;7.30;99.90
18073;DHT22;9161;47.348;9.648;2023-11-18T10:46:26;7.20;99.90
18073;DHT22;9161;47.348;9.648;2023-11-18T10:51:30;7.60;99.90
18073;DHT22;9161;47.348;9.648;2023-11-18T10:56:34;7.60;99.90
18073;DHT22;9161;47.348;9.648;2023-11-18T11:01:39;7.60;99.90
18073;DHT22;9161;47.348;9.648;2023-11-18T11:06:47;7.40;99.90
18073;DHT22;9161;47.348;9.648;2023-11-18T11:11:54;7.70;99.90
18073;DHT22;9161;47.348;9.648;2023-11-18T11:17:00;7.60;99.90
18073;DHT22;9161;47.348;9.648;2023-11-18T11:22:17;7.70;99.90
18073;DHT22;9161;47.348;9.648;2023-11-18T11:27:25;7.70;99.90
18073;DHT22;9161;47.348;9.648;2023-11-18T11:32:43;7.50;99.90
18073;DHT22;9161;47.348;9.648;2023-11-18T11:37:52;7.80;99.90
18073;DHT22;9161;47.348;9.648;2023-11-18T11:43:06;8.10;99.90
18073;DHT22;9161;47.348;9.648;2023-11-18T11:48:11;8.10;99.90
18073;DHT22;9161;47.348;9.648;2023-11-18T11:53:22;7.90;99.90
18073;DHT22;9161;47.348;9.648;2023-11-18T11:58:26;7.90;99.90
18073;DHT22;9161;47.348;9.648;2023-11-18T12:03:31;8.00;99.90
18073;DHT22;9161;47.348;9.648;2023-11-18T12:08:38;8.20;99.90
18073;DHT22;9161;47.348;9.648;2023-11-18T12:14:03;8.40;99.90
18073;DHT22;9161;47.348;9.648;2023-11-18T12:19:30;8.80;99.90
18073;DHT22;9161;47.348;9.648;2023-11-18T12:24:38;9.30;99.90
18073;DHT22;9161;47.348;9.648;2023-11-18T12:29:42;10.10;99.90
18073;DHT22;9161;47.348;9.648;2023-11-18T12:34:52;9.10;99.90
18073;DHT22;9161;47.348;9.648;2023-11-18T12:40:23;8.70;99.90
18073;DHT22;9161;47.348;9.648;2023-11-18T12:45:43;8.50;99.90
18073;DHT22;9161;47.348;9.648;2023-11-18T12:50:47;8.60;99.90
18073;DHT22;9161;47.348;9.648;2023-11-18T12:55:52;8.40;99.90
18073;DHT22;9161;47.348;9.648;2023-11-18T13:00:57;8.40;99.90
18073;DHT22;9161;47.348;9.648;2023-11-18T13:06:00;8.90;99.90
18073;DHT22;9161;47.348;9.648;2023-11-18T13:11:08;8.80;99.90
18073;DHT22;9161;47.348;9.648;2023-11-18T13:16:17;8.70;99.90
18073;DHT22;9161;47.348;9.648;2023-11-18T13:21:20;8.70;99.90
18073;DHT22;9161;47.348;9.648;2023-11-18T13:26:25;8.40;99.90
18073;DHT22;9161;47.348;9.648;2023-11-18T13:31:28;8.20;99.90
18073;DHT22;9161;47.348;9.648;2023-11-18T13:36:31;8.00;99.90
18073;DHT22;9161;47.348;9.648;2023-11-18T13:41:35;7.90;99.90
18073;DHT22;9161;47.348;9.648;2023-11-18T13:46:38;7.80;99.90
18073;DHT22;9161;47.348;9.648;2023-11-18T13:51:43;7.80;99.90
18073;DHT22;9161;47.348;9.648;2023-11-18T13:56:48;7.70;99.90
18073;DHT22;9161;47.348;9.648;2023-11-18T14:01:51;7.60;99.90
18073;DHT22;9161;47.348;9.648;2023-11-18T14:06:57;7.60;99.90
18073;DHT22;9161;47.348;9.648;2023-11-18T14:12:01;7.60;99.90
18073;DHT22;9161;47.348;9.648;2023-11-18T14:17:03;7.60;99.90
18073;DHT22;9161;47.348;9.648;2023-11-18T14:22:07;7.50;99.90
18073;DHT22;9161;47.348;9.648;2023-11-18T14:27:12;7.50;99.90
18073;DHT22;9161;47.348;9.648;2023-11-18T14:32:14;7.50;99.90
18073;DHT22;9161;47.348;9.648;2023-11-18T14:37:17;7.50;99.90
18073;DHT22;9161;47.348;9.648;2023-11-18T14:42:21;7.50;99.90
18073;DHT22;9161;47.348;9.648;2023-11-18T14:47:24;7.50;99.90
18073;DHT22;9161;47.348;9.648;2023-11-18T14:52:26;7.40;99.90
18073;DHT22;9161;47.348;9.648;2023-11-18T14:57:33;7.50;99.90
18073;DHT22;9161;47.348;9.648;2023-11-18T15:02:35;7.50;99.90
18073;DHT22;9161;47.348;9.648;2023-11-18T15:07:38;7.50;99.90
18073;DHT22;9161;47.348;9.648;2023-11-18T15:12:41;7.40;99.90
18073;DHT22;9161;47.348;9.648;2023-11-18T15:17:47;7.50;99.90
18073;DHT22;9161;47.348;9.648;2023-11-18T15:22:51;7.50;99.90
18073;DHT22;9161;47.348;9.648;2023-11-18T15:27:55;7.40;99.90
18073;DHT22;9161;47.348;9.648;2023-11-18T15:32:57;7.30;99.90
18073;DHT22;9161;47.348;9.648;2023-11-18T15:38:01;7.20;99.90
18073;DHT22;9161;47.348;9.648;2023-11-18T15:43:06;7.10;99.90
18073;DHT22;9161;47.348;9.648;2023-11-18T15:48:08;7.10;99.90
18073;DHT22;9161;47.348;9.648;2023-11-18T15:53:11;7.00;99.90
18073;DHT22;9161;47.348;9.648;2023-11-18T15:58:17;7.00;99.90
18073;DHT22;9161;47.348;9.648;2023-11-18T16:03:21;7.10;99.90
18073;DHT22;9161;47.348;9.648;2023-11-18T16:08:24;7.00;99.90
18073;DHT22;9161;47.348;9.648;2023-11-18T16:13:28;7.00;99.90
18073;DHT22;9161;47.348;9.648;2023-11-18T16:18:30;6.70;99.90
18073;DHT22;9161;47.348;9.648;2023-11-18T16:23:32;6.60;99.90
18073;DHT22;9161;47.348;9.648;2023-11-18T16:28:38;6.50;99.90
18073;DHT22;9161;47.348;9.648;2023-11-18T16:33:43;6.50;99.90
18073;DHT22;9161;47.348;9.648;2023-11-18T16:38:47;6.30;99.90
18073;DHT22;9161;47.348;9.648;2023-11-18T16:43:52;6.10;99.90
18073;DHT22;9161;47.348;9.648;2023-11-18T16:48:54;6.10;99.90
18073;DHT22;9161;47.348;9.648;2023-11-18T16:53:57;6.00;99.90
18073;DHT22;9161;47.348;9.648;2023-11-18T16:59:01;6.00;99.90
18073;DHT22;9161;47.348;9.648;2023-11-18T17:04:05;6.10;99.90
18073;DHT22;9161;47.348;9.648;2023-11-18T17:09:08;6.10;99.90
18073;DHT22;9161;47.348;9.648;2023-11-18T17:14:11;6.10;99.90
18073;DHT22;9161;47.348;9.648;2023-11-18T17:19:15;6.10;99.90
18073;DHT22;9161;47.348;9.648;2023-11-18T17:24:18;6.10;99.90
18073;DHT22;9161;47.348;9.648;2023-11-18T17:29:21;6.00;99.90
18073;DHT22;9161;47.348;9.648;2023-11-18T17:34:24;5.90;99.90
18073;DHT22;9161;47.348;9.648;2023-11-18T17:39:26;5.90;99.90
18073;DHT22;9161;47.348;9.648;2023-11-18T17:44:30;5.90;99.90
18073;DHT22;9161;47.348;9.648;2023-11-18T17:49:33;5.90;99.90
18073;DHT22;9161;47.348;9.648;2023-11-18T17:54:35;5.90;99.90
18073;DHT22;9161;47.348;9.648;2023-11-18T17:59:41;5.90;99.90
18073;DHT22;9161;47.348;9.648;2023-11-18T18:04:44;5.80;99.90
18073;DHT22;9161;47.348;9.648;2023-11-18T18:09:47;5.80;99.90
18073;DHT22;9161;47.348;9.648;2023-11-18T18:14:51;5.80;99.90
18073;DHT22;9161;47.348;9.648;2023-11-18T18:19:53;5.70;99.90
18073;DHT22;9161;47.348;9.648;2023-11-18T18:24:55;5.70;99.90
18073;DHT22;9161;47.348;9.648;2023-11-18T18:29:59;5.70;99.90
18073;DHT22;9161;47.348;9.648;2023-11-18T18:35:02;5.70;99.90
18073;DHT22;9161;47.348;9.648;2023-11-18T18:40:05;5.80;99.90
18073;DHT22;9161;47.348;9.648;2023-11-18T18:45:13;5.80;99.90
18073;DHT22;9161;47.348;9.648;2023-11-18T18:50:15;5.80;99.90
18073;DHT22;9161;47.348;9.648;2023-11-18T18:55:19;5.80;99.90
18073;DHT22;9161;47.348;9.648;2023-11-18T19:00:23;5.70;99.90
18073;DHT22;9161;47.348;9.648;2023-11-18T19:05:25;5.70;99.90
18073;DHT22;9161;47.348;9.648;2023-11-18T19:10:27;5.70;99.90
18073;DHT22;9161;47.348;9.648;2023-11-18T19:15:32;5.70;99.90
18073;DHT22;9161;47.348;9.648;2023-11-18T19:20:35;5.70;99.90
18073;DHT22;9161;47.348;9.648;2023-11-18T19:25:38;5.60;99.90
18073;DHT22;9161;47.348;9.648;2023-11-18T19:30:42;5.60;99.90
18073;DHT22;9161;47.348;9.648;2023-11-18T19:35:44;5.70;99.90
18073;DHT22;9161;47.348;9.648;2023-11-18T19:40:47;5.60;99.90
18073;DHT22;9161;47.348;9.648;2023-11-18T19:45:52;5.70;99.90
18073;DHT22;9161;47.348;9.648;2023-11-18T19:50:56;5.60;99.90
18073;DHT22;9161;47.348;9.648;2023-11-18T19:55:59;5.50;99.90
18073;DHT22;9161;47.348;9.648;2023-11-18T20:01:05;5.50;99.90
18073;DHT22;9161;47.348;9.648;2023-11-18T20:06:18;5.50;99.90
18073;DHT22;9161;47.348;9.648;2023-11-18T20:11:20;5.50;99.90
18073;DHT22;9161;47.348;9.648;2023-11-18T20:16:25;5.50;99.90
18073;DHT22;9161;47.348;9.648;2023-11-18T20:21:27;5.40;99.90
18073;DHT22;9161;47.348;9.648;2023-11-18T20:26:30;5.40;99.90
18073;DHT22;9161;47.348;9.648;2023-11-18T20:31:33;5.40;99.90
18073;DHT22;9161;47.348;9.648;2023-11-18T20:36:37;5.40;99.90
18073;DHT22;9161;47.348;9.648;2023-11-18T20:41:41;5.50;99.90
18073;DHT22;9161;47.348;9.648;2023-11-18T20:46:45;5.50;99.90
18073;DHT22;9161;47.348;9.648;2023-11-18T20:51:48;5.50;99.90
18073;DHT22;9161;47.348;9.648;2023-11-18T20:56:50;5.70;99.90
18073;DHT22;9161;47.348;9.648;2023-11-18T21:01:55;5.60;99.90
18073;DHT22;9161;47.348;9.648;2023-11-18T21:06:58;5.60;99.90
18073;DHT22;9161;47.348;9.648;2023-11-18T21:12:01;5.50;99.90
18073;DHT22;9161;47.348;9.648;2023-11-18T21:17:22;5.60;99.90
18073;DHT22;9161;47.348;9.648;2023-11-18T21:22:28;5.70;99.90
18073;DHT22;9161;47.348;9.648;2023-11-18T21:27:32;5.70;99.90
18073;DHT22;9161;47.348;9.648;2023-11-18T21:32:37;5.60;99.90
18073;DHT22;9161;47.348;9.648;2023-11-18T21:37:44;5.70;99.90
18073;DHT22;9161;47.348;9.648;2023-11-18T21:42:47;5.70;99.90
18073;DHT22;9161;47.348;9.648;2023-11-18T21:47:56;5.70;99.90
18073;DHT22;9161;47.348;9.648;2023-11-18T21:53:01;5.70;99.90
18073;DHT22;9161;47.348;9.648;2023-11-18T21:58:05;5.80;99.90
18073;DHT22;9161;47.348;9.648;2023-11-18T22:03:09;5.90;99.90
18073;DHT22;9161;47.348;9.648;2023-11-18T22:08:14;5.80;99.90
18073;DHT22;9161;47.348;9.648;2023-11-18T22:13:23;5.90;99.90
18073;DHT22;9161;47.348;9.648;2023-11-18T22:18:29;5.90;99.90
18073;DHT22;9161;47.348;9.648;2023-11-18T22:23:31;5.90;99.90
18073;DHT22;9161;47.348;9.648;2023-11-18T22:28:39;5.90;99.90
18073;DHT22;9161;47.348;9.648;2023-11-18T22:33:44;5.90;99.90
18073;DHT22;9161;47.348;9.648;2023-11-18T22:38:47;5.90;99.90
18073;DHT22;9161;47.348;9.648;2023-11-18T22:43:52;5.80;99.90
18073;DHT22;9161;47.348;9.648;2023-11-18T22:48:56;5.80;99.90
18073;DHT22;9161;47.348;9.648;2023-11-18T22:53:59;5.80;99.90
18073;DHT22;9161;47.348;9.648;2023-11-18T22:59:04;5.90;99.90
18073;DHT22;9161;47.348;9.648;2023-11-18T23:09:32;5.80;99.90
18073;DHT22;9161;47.348;9.648;2023-11-18T23:14:37;5.80;99.90
18073;DHT22;9161;47.348;9.648;2023-11-18T23:19:40;5.80;99.90
18073;DHT22;9161;47.348;9.648;2023-11-18T23:24:52;5.80;99.90
18073;DHT22;9161;47.348;9.648;2023-11-18T23:29:55;5.80;99.90
18073;DHT22;9161;47.348;9.648;2023-11-18T23:34:58;5.80;99.90
18073;DHT22;9161;47.348;9.648;2023-11-18T23:40:05;5.70;99.90
18073;DHT22;9161;47.348;9.648;2023-11-18T23:45:11;5.80;99.90
18073;DHT22;9161;47.348;9.648;2023-11-18T23:50:14;5.90;99.90
18073;DHT22;9161;47.348;9.648;2023-11-18T23:55:18;5.90;99.90
